Tropical Cyclones
[Index]
Main Index Home Page Stock Weather Photos Extreme Storms Discussion Storm News and Storm Chasing Reports Tropical Cyclones / Hurricanes / Typhoons Weather Data and Links Wild Fires / Bushfires Weather Observation Techniques Weather Picture Catalogue Tornado Pictures and Reports Stock Video Footage and DVDs for sale
Season 2005-2006 Tropical Cyclone DARYL Track Map
Season 2005-2006 Summaries: [BoM-AU] [JTWC-AU] [JTWC-SIO] [JTWC-SPAC] [JTWC-SH]
<<- Previous TC | JTWC 2005-2006 Season | Next TC ->>

click for intensity scale information  Lat/long Grid: Show Hide

 Date Labels: Show Hide

Joint Typhoon Warning Centre Cyclone Data

Name: DARYL

18 Jan 2006 12:00 UTC to 23 Jan 2006 12:00 UTC

    date/time    lat    long     hPa   cat  kts
2006-01-18 12   16.0   123.1    1002         25          
2006-01-18 18   16.0   122.7    1000         30          
2006-01-19 00   16.2   122.4     997         35          
2006-01-19 06   16.6   121.6     997         35          
2006-01-19 12   16.9   121.3     994    1    40          
2006-01-19 18   17.1   120.9     991    1    45          
2006-01-20 00   17.5   120.6     987    1    50          
2006-01-20 06   18.2   120.3     987    1    50          
2006-01-20 12   18.6   119.2     987    1    50          
2006-01-20 12   18.6   119.2     987    1    50          
2006-01-20 18   19.0   117.9     987    1    50          
2006-01-21 00   19.3   117.0     987    1    50          
2006-01-21 06   19.6   116.3     991    1    45          
2006-01-21 12   19.9   115.8     994    1    40          
2006-01-21 18   20.1   115.3     994    1    40          
2006-01-22 00   20.3   114.8     994    1    40          
2006-01-22 06   20.4   114.1     997         35          
2006-01-22 12   20.7   113.3    1000         30          
2006-01-22 18   21.2   112.5    1000         30          
2006-01-23 00   22.2   111.2    1004         25          
2006-01-23 06   23.0   109.9    1002         25          
2006-01-23 12   24.0   108.9    1004         20          
Winds are 1-min average.

Tropical cyclone tracks developed by Michael Bath using data from the Joint Typhoon Warning Centre Best Tracks and Google Maps.


[Australian Severe Weather index] [Copyright Notice] [Email Contacts] [Search This Site] [Privacy Policy]
Document: tropical_cyclone_daryl.htm Updated: 28 June 2017